Time;durP1;ratioP1;P1;durP2;ratioP2;P2;SDS_P1;SDS_P2;PMS_P1;PMS_P2;Temp;Humidity;BMP_temperature;BMP_pressure;BME280_temperature;BME280_humidity;BME280_pressure;Samples;Min_cycle;Max_cycle;Signal;HPM_P1;HPM_P2
2021/12/06 00:01:54;;;;;;;4.75;1.10;;;;;;;13.09;82.12;101198.28;5072463;28;20033;-67
2021/12/06 00:04:25;;;;;;;8.68;1.73;;;;;;;13.10;82.16;101204.47;5085677;28;20127;-68
2021/12/06 00:06:59;;;;;;;7.75;1.23;;;;;;;13.11;82.17;101206.25;5089092;28;20056;-67
2021/12/06 00:09:29;;;;;;;4.82;1.55;;;;;;;13.10;82.25;101202.72;5088965;28;20040;-68
2021/12/06 00:12:00;;;;;;;5.22;1.50;;;;;;;13.11;82.16;101203.59;5087381;28;20605;-68
2021/12/06 00:14:30;;;;;;;7.38;2.33;;;;;;;13.08;81.98;101196.50;5072302;28;20044;-68
2021/12/06 00:16:59;;;;;;;4.20;1.40;;;;;;;13.02;82.01;101207.03;5069830;28;20101;-68
2021/12/06 00:19:27;;;;;;;8.05;1.42;;;;;;;12.94;81.95;101206.03;5080785;28;20047;-68
2021/12/06 00:21:58;;;;;;;4.75;1.10;;;;;;;12.93;81.98;101201.59;5084407;28;20040;-69
2021/12/06 00:24:26;;;;;;;6.47;1.30;;;;;;;12.96;82.04;101203.41;5078903;28;20044;-69
2021/12/06 00:26:54;;;;;;;3.05;1.00;;;;;;;12.96;81.54;101200.75;5078224;28;20110;-67
2021/12/06 00:29:22;;;;;;;6.72;1.27;;;;;;;12.97;81.52;101203.44;5081536;28;20040;-67
2021/12/06 00:31:51;;;;;;;7.50;1.55;;;;;;;13.01;81.44;101209.63;5067747;28;20128;-67
2021/12/06 00:34:20;;;;;;;6.72;1.75;;;;;;;13.02;81.26;101216.72;5038878;28;20037;-67
2021/12/06 00:37:05;;;;;;;7.75;1.65;;;;;;;12.97;81.00;101216.69;5049868;28;20041;-68
2021/12/06 00:39:34;;;;;;;8.20;1.40;;;;;;;12.86;81.28;101213.00;5077828;28;20052;-68
2021/12/06 00:42:03;;;;;;;5.60;1.40;;;;;;;12.84;81.45;101219.13;5087844;28;20037;-68
2021/12/06 00:44:31;;;;;;;8.38;1.38;;;;;;;12.84;81.51;101213.84;5085993;28;20036;-68
2021/12/06 00:46:59;;;;;;;6.68;1.70;;;;;;;12.86;81.40;101213.00;5082259;28;20075;-68
2021/12/06 00:49:26;;;;;;;5.60;1.13;;;;;;;12.86;81.39;101218.31;5069629;28;20086;-68
2021/12/06 00:51:54;;;;;;;6.78;1.50;;;;;;;12.90;81.36;101216.56;5068127;28;20785;-68
2021/12/06 00:54:22;;;;;;;7.95;1.70;;;;;;;12.87;81.32;101211.22;5082933;28;20072;-68
2021/12/06 00:56:52;;;;;;;6.93;1.45;;;;;;;12.83;81.42;101204.09;5066731;28;20044;-68
2021/12/06 00:59:19;;;;;;;6.85;1.83;;;;;;;12.80;81.68;101199.66;5071224;28;20411;-68
2021/12/06 01:01:47;;;;;;;2.40;0.88;;;;;;;12.75;81.68;101202.25;5088384;28;20043;-67
2021/12/06 01:04:15;;;;;;;5.68;1.38;;;;;;;12.76;81.73;101205.78;5079703;28;20056;-67
2021/12/06 01:06:43;;;;;;;8.57;1.63;;;;;;;12.76;81.67;101198.72;5072226;28;20048;-67
2021/12/06 01:09:10;;;;;;;4.65;1.77;;;;;;;12.77;81.65;101203.16;5070186;28;20566;-68
2021/12/06 01:11:38;;;;;;;4.45;1.48;;;;;;;12.81;81.73;101198.78;5068792;28;20071;-68
2021/12/06 01:14:07;;;;;;;9.02;1.85;;;;;;;12.84;81.53;101203.25;5074038;28;20032;-68
2021/12/06 01:16:35;;;;;;;3.90;1.65;;;;;;;12.82;81.46;101203.22;5090698;28;20105;-68
2021/12/06 01:19:03;;;;;;;8.02;1.38;;;;;;;12.83;81.42;101190.88;5075785;28;20037;-68
2021/12/06 01:21:42;;;;;;;7.40;1.90;;;;;;;12.84;81.46;101195.28;5069243;28;20485;-68
2021/12/06 01:24:12;;;;;;;8.85;1.48;;;;;;;12.86;81.38;101190.91;5072082;28;20513;-68
2021/12/06 01:27:04;;;;;;;10.07;1.88;;;;;;;12.84;81.21;101190.88;5076868;28;20041;-68
2021/12/06 01:32:37;;;;;;;7.05;2.13;;;;;;;12.49;81.04;101198.34;5042144;28;20142;-68
2021/12/06 01:40:36;;;;;;;3.60;1.65;;;;;;;12.51;81.13;101188.66;5074091;28;20044;-68
2021/12/06 01:43:05;;;;;;;7.82;2.47;;;;;;;12.58;81.15;101182.59;5060430;28;20066;-68
2021/12/06 01:45:35;;;;;;;6.78;2.45;;;;;;;12.59;80.95;101184.38;5051067;28;20051;-68
2021/12/06 01:48:03;;;;;;;5.25;2.50;;;;;;;12.49;81.00;101182.44;5048758;28;20033;-68
2021/12/06 01:50:30;;;;;;;5.22;2.25;;;;;;;12.49;81.03;101186.84;5076060;28;20046;-68
2021/12/06 01:53:01;;;;;;;7.80;3.28;;;;;;;12.37;81.03;101184.91;5042425;28;20068;-68
2021/12/06 01:55:34;;;;;;;11.93;4.03;;;;;;;12.32;81.28;101190.16;5051032;28;20407;-68
2021/12/06 01:58:04;;;;;;;8.32;4.00;;;;;;;12.30;81.28;101191.88;5082476;28;20404;-68
2021/12/06 02:00:38;;;;;;;9.43;4.07;;;;;;;12.41;81.25;101194.69;5049437;28;20048;-68
2021/12/06 02:03:11;;;;;;;9.05;3.53;;;;;;;12.51;81.13;101182.47;5056517;28;20456;-68
2021/12/06 02:05:43;;;;;;;9.93;4.90;;;;;;;12.58;81.05;101190.53;5062985;28;20045;-68
2021/12/06 02:08:13;;;;;;;5.40;1.98;;;;;;;12.54;81.13;101180.75;5052435;28;20051;-68
2021/12/06 02:10:42;;;;;;;7.13;1.88;;;;;;;12.50;81.40;101188.63;5055300;28;20032;-68
2021/12/06 02:13:13;;;;;;;7.57;2.22;;;;;;;12.48;81.57;101185.06;5070939;28;20066;-68
2021/12/06 02:15:47;;;;;;;11.35;2.70;;;;;;;12.47;81.56;101180.66;5059668;28;20037;-68
2021/12/06 02:18:38;;;;;;;10.10;2.78;;;;;;;12.47;81.78;101180.66;5050304;28;20044;-67
2021/12/06 02:21:14;;;;;;;8.75;2.60;;;;;;;12.52;81.68;101179.84;5040820;28;20048;-68
2021/12/06 02:23:43;;;;;;;4.65;2.03;;;;;;;12.51;81.57;101179.81;5054242;28;20051;-68
2021/12/06 02:26:12;;;;;;;8.43;2.70;;;;;;;12.51;81.44;101182.47;5056234;28;20043;-68
2021/12/06 02:28:40;;;;;;;8.18;3.15;;;;;;;12.47;81.35;101178.88;5080131;28;20052;-68
2021/12/06 02:31:09;;;;;;;10.63;3.10;;;;;;;12.39;81.33;101172.59;5079252;28;20040;-68
2021/12/06 02:33:37;;;;;;;7.43;2.90;;;;;;;12.37;81.44;101171.69;5084216;28;20483;-68
2021/12/06 02:36:06;;;;;;;5.70;2.78;;;;;;;12.32;81.52;101171.63;5091659;28;20119;-68
2021/12/06 02:38:35;;;;;;;6.32;2.70;;;;;;;12.33;81.51;101168.13;5088653;28;20072;-67
2021/12/06 02:41:03;;;;;;;3.95;2.40;;;;;;;12.32;81.35;101166.31;5076912;28;20036;-68
2021/12/06 02:43:33;;;;;;;7.85;2.75;;;;;;;12.35;81.61;101166.34;5081849;28;20063;-68
2021/12/06 02:46:01;;;;;;;7.68;2.40;;;;;;;12.35;81.71;101176.06;5091264;28;20047;-68
2021/12/06 02:48:28;;;;;;;22.50;4.40;;;;;;;12.31;81.65;101161.91;5081480;28;20041;-68
2021/12/06 02:50:59;;;;;;;10.18;4.05;;;;;;;12.25;81.63;101159.16;5091296;28;20052;-68
2021/12/06 02:53:31;;;;;;;13.57;4.10;;;;;;;12.28;81.63;101153.00;5081412;28;20380;-68
2021/12/06 02:56:05;;;;;;;8.40;3.22;;;;;;;12.30;82.16;101160.09;5074451;28;20036;-68
2021/12/06 02:58:55;;;;;;;;;;;;;;;12.32;82.19;101146.91;5085053;28;20488;-68
2021/12/06 03:01:28;;;;;;;11.32;5.05;;;;;;;12.23;82.41;101157.34;5061783;28;19927;-67
2021/12/06 03:03:56;;;;;;;11.00;3.17;;;;;;;12.23;82.49;101160.00;5051417;28;20033;-68
2021/12/06 03:06:26;;;;;;;13.30;4.22;;;;;;;12.13;82.42;101155.44;5068405;28;20054;-67
2021/12/06 03:09:01;;;;;;;10.52;5.07;;;;;;;12.18;82.50;101156.38;5072423;28;20044;-68
2021/12/06 03:11:35;;;;;;;101.13;52.42;;;;;;;12.17;82.20;101157.25;5089196;28;20503;-68
2021/12/06 03:14:03;;;;;;;17.88;8.65;;;;;;;12.12;81.90;101156.31;5087415;28;20521;-68
2021/12/06 03:16:31;;;;;;;9.30;4.40;;;;;;;12.04;82.07;101145.59;5079420;28;20050;-68
2021/12/06 03:19:00;;;;;;;13.48;4.70;;;;;;;12.08;82.17;101147.41;5077525;28;20036;-68
2021/12/06 03:21:29;;;;;;;14.82;7.53;;;;;;;12.11;82.23;101147.47;5077810;28;20044;-68
2021/12/06 03:23:58;;;;;;;13.43;4.72;;;;;;;12.14;82.28;101149.28;5071464;28;20084;-68
2021/12/06 03:26:26;;;;;;;16.23;6.90;;;;;;;12.19;82.52;101152.88;5062443;28;20391;-68
2021/12/06 03:28:56;;;;;;;33.35;21.08;;;;;;;12.19;82.49;101158.19;5059303;28;20068;-68
2021/12/06 03:31:26;;;;;;;69.90;47.92;;;;;;;12.07;82.60;101152.69;5077498;28;20123;-68
2021/12/06 03:33:57;;;;;;;31.02;22.02;;;;;;;12.01;82.64;101145.56;5070017;28;20049;-67
2021/12/06 03:36:28;;;;;;;36.50;26.92;;;;;;;12.00;82.85;101158.75;5051248;28;20045;-68
2021/12/06 03:38:57;;;;;;;59.33;43.15;;;;;;;11.97;82.79;101163.13;5082760;28;20497;-67
2021/12/06 03:41:27;;;;;;;44.83;33.53;;;;;;;11.97;82.71;101159.59;5064867;28;20044;-68
2021/12/06 03:43:57;;;;;;;30.10;18.90;;;;;;;11.99;82.74;101168.44;5054234;28;20048;-67
2021/12/06 03:46:27;;;;;;;25.52;13.18;;;;;;;11.99;82.70;101155.22;5066157;28;20044;-68
2021/12/06 03:48:55;;;;;;;15.68;7.57;;;;;;;12.05;82.89;101155.31;5070596;28;20044;-67
2021/12/06 03:51:23;;;;;;;19.23;11.30;;;;;;;12.13;82.76;101155.44;5059615;28;20049;-68
2021/12/06 03:53:53;;;;;;;11.75;5.90;;;;;;;12.14;82.78;101149.28;5060749;28;20600;-68
2021/12/06 03:56:21;;;;;;;32.67;14.45;;;;;;;12.17;82.79;101141.38;5059377;28;20055;-68
2021/12/06 03:58:49;;;;;;;16.35;10.73;;;;;;;12.11;82.72;101142.19;5065779;28;20044;-68
2021/12/06 04:01:19;;;;;;;15.82;9.88;;;;;;;12.07;82.51;101136.81;5049591;28;20515;-67
2021/12/06 04:03:47;;;;;;;11.07;5.90;;;;;;;12.04;82.76;101144.69;5054093;28;20053;-68
2021/12/06 04:06:15;;;;;;;11.10;5.32;;;;;;;12.07;83.26;101140.34;5050436;28;20568;-68
2021/12/06 04:08:43;;;;;;;30.00;22.00;;;;;;;12.11;83.66;101142.19;5066990;28;20048;-67
2021/12/06 04:11:13;;;;;;;25.63;17.83;;;;;;;12.09;83.51;101132.41;5061580;28;20043;-68
2021/12/06 04:13:41;;;;;;;25.98;12.73;;;;;;;12.05;83.45;101131.50;5052576;28;20488;-68
2021/12/06 04:16:08;;;;;;;20.70;12.82;;;;;;;12.04;83.38;101131.47;5049978;28;20115;-68
2021/12/06 04:18:40;;;;;;;13.50;7.75;;;;;;;12.00;83.09;101127.00;5059680;28;20044;-67
2021/12/06 04:21:10;;;;;;;15.95;6.07;;;;;;;11.92;83.08;101113.66;5055891;28;20029;-68
2021/12/06 04:23:38;;;;;;;14.77;3.08;;;;;;;12.09;83.79;101119.19;5050973;28;20106;-68
2021/12/06 04:26:07;;;;;;;11.82;1.95;;;;;;;12.37;84.56;101118.72;5050103;28;20040;-67
2021/12/06 04:28:36;;;;;;;14.50;2.95;;;;;;;12.61;85.06;101116.41;5063450;28;20040;-67
2021/12/06 04:31:05;;;;;;;16.13;2.75;;;;;;;12.76;84.94;101126.31;5052875;28;20041;-68
2021/12/06 04:33:33;;;;;;;6.18;1.58;;;;;;;12.89;84.83;101124.69;5055421;28;20048;-67
2021/12/06 04:36:03;;;;;;;7.93;1.67;;;;;;;12.98;84.78;101131.00;5055335;28;20044;-68
2021/12/06 04:38:32;;;;;;;8.18;1.50;;;;;;;13.04;84.68;101120.47;5063001;28;20123;-67
2021/12/06 04:41:04;;;;;;;5.65;1.30;;;;;;;13.14;84.81;101114.41;5049575;28;20047;-67
2021/12/06 04:43:32;;;;;;;8.48;1.15;;;;;;;13.28;84.88;101117.22;5050869;28;20056;-68
2021/12/06 04:46:00;;;;;;;5.00;1.05;;;;;;;13.32;84.82;101115.50;5050375;28;20043;-68
2021/12/06 04:48:28;;;;;;;6.85;1.10;;;;;;;13.37;84.75;101116.44;5051401;28;20098;-68
2021/12/06 04:50:57;;;;;;;10.82;1.70;;;;;;;13.41;84.65;101121.78;5063731;28;20485;-70
2021/12/06 04:53:35;;;;;;;4.28;0.98;;;;;;;13.41;84.33;101119.13;5083717;28;20047;-67
2021/12/06 04:56:10;;;;;;;4.30;1.23;;;;;;;13.45;84.22;101118.28;5069128;28;20029;-68
2021/12/06 04:58:47;;;;;;;5.25;0.90;;;;;;;13.50;84.16;101124.53;5053667;28;20052;-68
2021/12/06 05:01:20;;;;;;;6.35;1.45;;;;;;;13.56;83.98;101121.94;5067397;28;20040;-67
2021/12/06 05:03:48;;;;;;;7.78;1.08;;;;;;;13.60;83.65;101127.25;5059032;28;20404;-67
2021/12/06 05:06:21;;;;;;;15.98;4.07;;;;;;;13.68;83.52;101137.06;5042337;28;20055;-68
2021/12/06 05:08:52;;;;;;;15.63;8.45;;;;;;;13.69;83.11;101132.66;5069800;28;20499;-68
2021/12/06 05:11:23;;;;;;;24.50;15.98;;;;;;;13.69;83.07;101140.59;5062521;28;20045;-67
2021/12/06 05:13:53;;;;;;;19.67;12.75;;;;;;;13.68;83.04;101138.81;5048739;28;20443;-67
2021/12/06 05:16:21;;;;;;;14.85;6.00;;;;;;;13.68;82.84;101139.72;5036428;28;20046;-68
2021/12/06 05:18:50;;;;;;;5.47;2.20;;;;;;;13.71;82.98;101146.81;5044998;28;20045;-68
2021/12/06 05:21:18;;;;;;;7.75;1.60;;;;;;;13.77;82.74;101141.56;5082876;28;20416;-67
2021/12/06 05:23:47;;;;;;;8.15;2.15;;;;;;;13.80;82.69;101147.78;5065632;28;20052;-68
2021/12/06 05:26:19;;;;;;;9.68;3.55;;;;;;;13.85;82.48;101135.44;5051574;28;20099;-68
2021/12/06 05:28:48;;;;;;;8.48;3.33;;;;;;;13.89;82.36;101133.69;5049075;28;20114;-68
2021/12/06 05:31:20;;;;;;;8.32;3.67;;;;;;;13.95;82.27;101134.63;5030350;28;20058;-68
2021/12/06 05:33:51;;;;;;;10.02;4.57;;;;;;;14.00;81.95;101128.47;5030999;28;20400;-68
2021/12/06 05:36:19;;;;;;;10.80;5.82;;;;;;;14.05;81.84;101140.88;5079543;28;20047;-67
2021/12/06 05:38:47;;;;;;;10.55;5.70;;;;;;;14.08;81.74;101143.59;5057232;28;20054;-68
2021/12/06 05:41:14;;;;;;;14.02;7.25;;;;;;;14.09;81.75;101137.41;5072821;28;20045;-67
2021/12/06 05:43:44;;;;;;;14.93;10.07;;;;;;;14.14;81.68;101122.38;5055360;28;20040;-68
2021/12/06 05:46:12;;;;;;;16.80;12.15;;;;;;;14.15;81.54;101113.53;5066241;28;20086;-68
2021/12/06 05:48:40;;;;;;;39.75;33.38;;;;;;;14.20;81.43;101124.19;5052256;28;20051;-68
2021/12/06 05:51:08;;;;;;;65.35;48.67;;;;;;;14.23;81.23;101121.56;5069149;28;20037;-67
2021/12/06 05:53:35;;;;;;;66.28;53.05;;;;;;;14.26;81.09;101125.13;5053663;28;20492;-68
2021/12/06 05:56:04;;;;;;;38.88;31.40;;;;;;;14.27;81.06;101121.59;5065115;28;20044;-68
2021/12/06 05:58:34;;;;;;;24.15;12.93;;;;;;;14.26;80.95;101122.47;5054842;28;20111;-68
2021/12/06 06:01:05;;;;;;;13.05;6.97;;;;;;;14.28;81.15;101117.16;5083835;28;20572;-68
2021/12/06 06:03:33;;;;;;;8.50;4.25;;;;;;;14.29;81.24;101126.91;5054299;28;20053;-67
2021/12/06 06:06:01;;;;;;;12.50;5.00;;;;;;;14.34;80.93;101130.47;5083480;28;20044;-68
2021/12/06 06:08:29;;;;;;;12.23;5.25;;;;;;;14.46;80.86;101125.25;5072143;28;20040;-68
2021/12/06 06:10:57;;;;;;;12.88;5.03;;;;;;;14.62;80.58;101135.13;5065935;28;20063;-68
2021/12/06 06:13:25;;;;;;;7.70;3.67;;;;;;;14.79;80.08;101136.94;5070889;28;20044;-67
2021/12/06 06:15:55;;;;;;;10.35;6.53;;;;;;;14.92;79.76;101147.63;5072286;28;20098;-67
2021/12/06 06:18:24;;;;;;;20.33;14.88;;;;;;;15.00;79.31;101148.56;5058443;28;20067;-67
2021/12/06 06:20:53;;;;;;;26.90;18.45;;;;;;;15.06;79.11;101151.25;5057294;28;20099;-67
2021/12/06 06:23:21;;;;;;;17.98;13.77;;;;;;;15.20;78.89;101140.66;5073830;28;20045;-67
2021/12/06 06:25:49;;;;;;;41.78;32.40;;;;;;;15.26;78.37;101158.38;5058414;28;20044;-68
2021/12/06 06:28:17;;;;;;;64.95;51.63;;;;;;;15.28;78.02;101141.56;5057710;28;20118;-68
2021/12/06 06:30:44;;;;;;;32.65;23.25;;;;;;;15.23;77.53;101139.78;5054313;28;20037;-67
2021/12/06 06:33:12;;;;;;;17.88;12.70;;;;;;;15.23;77.53;101123.81;5060668;28;20091;-67
2021/12/06 06:35:41;;;;;;;14.73;8.85;;;;;;;15.37;77.48;101138.00;5062259;28;20458;-68
2021/12/06 06:38:09;;;;;;;19.63;14.95;;;;;;;15.33;77.20;101139.78;5068696;28;20542;-67
2021/12/06 06:40:37;;;;;;;21.23;14.45;;;;;;;15.28;77.25;101144.22;5068297;28;20047;-67
2021/12/06 06:43:04;;;;;;;26.30;19.20;;;;;;;15.21;77.22;101163.72;5065330;28;20036;-67
2021/12/06 06:45:32;;;;;;;34.30;23.77;;;;;;;15.18;77.36;101176.97;5052894;28;20149;-67
2021/12/06 06:48:00;;;;;;;62.28;49.20;;;;;;;15.16;77.45;101190.25;5053337;28;20045;-67
2021/12/06 06:50:27;;;;;;;47.45;34.72;;;;;;;15.19;77.72;101194.72;5042816;28;20077;-69
2021/12/06 06:52:57;;;;;;;21.13;13.32;;;;;;;15.51;78.17;101202.78;5051272;28;20049;-67
2021/12/06 06:55:25;;;;;;;13.18;5.35;;;;;;;15.78;78.01;101205.53;5080967;28;20056;-67
2021/12/06 06:57:53;;;;;;;4.22;2.20;;;;;;;15.89;77.40;101201.13;5073806;28;20465;-67
2021/12/06 07:00:23;;;;;;;4.25;0.98;;;;;;;16.07;77.13;101199.38;5090982;28;20101;-68
2021/12/06 07:02:51;;;;;;;5.35;1.30;;;;;;;16.45;76.88;101205.56;5083626;28;20561;-68
2021/12/06 07:05:19;;;;;;;3.67;0.98;;;;;;;16.83;76.50;101220.63;5077867;28;20568;-67
2021/12/06 07:07:47;;;;;;;2.30;0.75;;;;;;;17.03;75.21;101213.44;5083689;28;20523;-67
2021/12/06 07:10:16;;;;;;;4.15;0.75;;;;;;;17.17;74.07;101218.72;5071934;28;20033;-67
2021/12/06 07:12:46;;;;;;;3.03;0.75;;;;;;;17.06;73.93;101232.13;5090040;28;20055;-67
2021/12/06 07:15:16;;;;;;;5.82;0.85;;;;;;;16.91;73.98;101237.50;5080023;28;20385;-68
2021/12/06 07:17:45;;;;;;;5.85;0.95;;;;;;;16.80;73.94;101232.19;5090804;28;20037;-67
2021/12/06 07:20:14;;;;;;;7.43;0.95;;;;;;;16.75;73.90;101231.28;5091728;28;20097;-67
2021/12/06 07:22:42;;;;;;;10.50;1.27;;;;;;;16.77;73.29;101225.97;5080719;28;20120;-68
2021/12/06 07:25:12;;;;;;;6.10;1.58;;;;;;;16.85;72.53;101230.41;5071616;28;20442;-68
2021/12/06 07:27:43;;;;;;;8.55;1.73;;;;;;;16.90;72.18;101231.25;5056694;28;20049;-68
2021/12/06 07:30:13;;;;;;;4.50;0.65;;;;;;;16.92;71.84;101226.81;5072754;28;20032;-67
2021/12/06 07:32:41;;;;;;;9.68;1.77;;;;;;;17.03;71.39;101233.00;5071640;28;20098;-68
2021/12/06 07:35:11;;;;;;;6.57;0.98;;;;;;;17.19;71.14;101230.28;5072088;28;20040;-67
2021/12/06 07:37:38;;;;;;;5.80;0.82;;;;;;;17.32;70.87;101226.69;5072321;28;20052;-68
2021/12/06 07:40:09;;;;;;;5.07;0.70;;;;;;;17.53;70.54;101227.44;5067313;28;20032;-67
2021/12/06 07:42:37;;;;;;;7.10;1.15;;;;;;;17.70;70.68;101218.47;5100822;27;20037;-68
2021/12/06 07:45:10;;;;;;;8.38;0.93;;;;;;;17.80;70.73;101214.84;5059346;28;20048;-67
2021/12/06 07:47:38;;;;;;;4.30;0.90;;;;;;;17.83;71.21;101207.72;5071264;28;20048;-67
2021/12/06 07:50:10;;;;;;;6.18;1.13;;;;;;;17.93;71.43;101212.06;5081211;28;20048;-67
2021/12/06 07:52:37;;;;;;;6.03;1.58;;;;;;;18.10;71.77;101211.97;5069567;28;20033;-68
2021/12/06 07:55:07;;;;;;;5.85;0.90;;;;;;;18.38;71.11;101209.06;5068306;28;20446;-68
2021/12/06 07:57:36;;;;;;;6.40;1.25;;;;;;;18.45;70.07;101211.63;5088946;28;20100;-68
2021/12/06 08:00:09;;;;;;;8.18;1.30;;;;;;;18.43;70.08;101212.56;5090640;28;20044;-67
2021/12/06 08:02:36;;;;;;;14.85;7.13;;;;;;;18.42;70.00;101216.16;5074076;28;20043;-68
2021/12/06 08:07:46;;;;;;;12.38;5.28;;;;;;;18.64;70.28;101207.06;5089837;28;20097;-67
2021/12/06 08:10:14;;;;;;;8.30;2.10;;;;;;;18.70;70.46;101201.63;5078482;28;20093;-67
2021/12/06 08:12:42;;;;;;;5.90;0.98;;;;;;;18.82;70.03;101196.16;5073181;28;20470;-67
2021/12/06 08:15:12;;;;;;;7.32;1.33;;;;;;;18.86;69.63;101191.63;5090512;28;20036;-67
2021/12/06 08:17:40;;;;;;;8.52;4.25;;;;;;;19.07;70.24;101194.94;5091469;28;20128;-68
2021/12/06 08:20:11;;;;;;;13.15;8.30;;;;;;;19.41;70.48;101190.03;5067944;28;20128;-67
2021/12/06 08:22:39;;;;;;;25.00;18.67;;;;;;;19.46;69.49;101192.69;5066170;28;20086;-67
2021/12/06 08:25:09;;;;;;;6.25;2.10;;;;;;;19.73;68.66;101181.56;5067338;28;20573;-68
2021/12/06 08:27:37;;;;;;;4.70;1.38;;;;;;;19.63;66.86;101182.59;5065919;28;20138;-67
2021/12/06 08:30:06;;;;;;;8.25;1.27;;;;;;;19.26;67.23;101186.69;5066662;28;20056;-68
2021/12/06 08:32:36;;;;;;;7.82;1.30;;;;;;;18.93;68.23;101186.19;5080225;28;20048;-67
2021/12/06 08:35:05;;;;;;;10.25;2.08;;;;;;;19.26;69.29;101186.69;5071345;28;20066;-68
2021/12/06 08:37:32;;;;;;;4.20;1.67;;;;;;;19.62;68.76;101177.28;5090138;28;20464;-68
2021/12/06 08:40:00;;;;;;;6.45;0.95;;;;;;;19.88;67.22;101167.94;5091003;28;20040;-68
2021/12/06 08:42:28;;;;;;;5.35;1.88;;;;;;;20.05;66.60;101166.75;5089108;28;20048;-68
2021/12/06 08:44:55;;;;;;;10.60;6.25;;;;;;;20.24;66.48;101170.91;5090998;28;20066;-67
2021/12/06 08:47:24;;;;;;;7.93;4.82;;;;;;;20.49;66.11;101160.63;5070618;28;20052;-67
2021/12/06 08:49:53;;;;;;;8.90;4.30;;;;;;;20.57;64.84;101164.06;5070559;28;20040;-67
2021/12/06 08:52:21;;;;;;;7.72;3.70;;;;;;;20.68;64.51;101159.38;5070943;28;20052;-67
2021/12/06 08:54:50;;;;;;;12.52;9.98;;;;;;;20.78;64.85;101162.78;5070825;28;20480;-67
2021/12/06 08:57:17;;;;;;;11.60;8.63;;;;;;;20.85;63.06;101164.44;5047034;28;20040;-66
2021/12/06 08:59:45;;;;;;;11.20;8.05;;;;;;;20.95;63.04;101164.19;5049465;28;20041;-67
2021/12/06 09:02:14;;;;;;;12.35;7.90;;;;;;;20.84;62.47;101160.84;5054659;28;20033;-67
2021/12/06 09:04:43;;;;;;;11.30;8.93;;;;;;;20.91;62.46;101157.13;5071019;28;20044;-68
2021/12/06 09:07:14;;;;;;;16.55;11.90;;;;;;;21.10;61.99;101144.19;5071300;28;20102;-67
2021/12/06 09:09:47;;;;;;;17.27;12.93;;;;;;;21.14;61.64;101148.56;5067311;28;20444;-67
2021/12/06 09:12:17;;;;;;;23.98;21.33;;;;;;;21.22;61.31;101140.38;5063152;28;20033;-67
2021/12/06 09:14:45;;;;;;;17.63;12.88;;;;;;;21.19;61.54;101140.47;5069957;28;20094;-68
2021/12/06 09:17:14;;;;;;;16.23;12.50;;;;;;;20.99;61.79;101133.69;5072907;28;20047;-67
2021/12/06 09:19:43;;;;;;;9.73;5.10;;;;;;;20.82;62.48;101127.78;5075416;28;20433;-67
2021/12/06 09:22:13;;;;;;;7.72;3.35;;;;;;;21.05;62.52;101120.16;5073501;28;20067;-67
2021/12/06 09:24:40;;;;;;;6.60;2.75;;;;;;;21.33;62.25;101120.41;5074759;28;20050;-67
2021/12/06 09:27:09;;;;;;;10.90;4.50;;;;;;;21.42;60.78;101104.09;5066457;28;20041;-67
2021/12/06 09:29:37;;;;;;;4.35;1.17;;;;;;;21.58;61.08;101101.94;5053432;28;20120;-67
2021/12/06 09:32:07;;;;;;;8.55;4.40;;;;;;;21.47;60.68;101106.66;5086535;28;20435;-67
2021/12/06 09:34:37;;;;;;;11.82;7.57;;;;;;;21.33;61.33;101116.88;5087044;28;20049;-68
2021/12/06 09:37:05;;;;;;;18.35;10.52;;;;;;;20.94;61.69;101113.22;5054344;28;20179;-67
2021/12/06 09:39:35;;;;;;;11.48;7.43;;;;;;;20.51;62.76;101105.19;5054701;28;20131;-67
2021/12/06 09:42:03;;;;;;;16.55;10.02;;;;;;;20.22;63.33;101101.22;5055386;28;20128;-68
2021/12/06 09:44:31;;;;;;;8.00;5.60;;;;;;;19.95;63.04;101109.78;5054264;28;20041;-68
2021/12/06 09:46:59;;;;;;;8.75;5.65;;;;;;;19.92;63.61;101106.25;5054291;28;20049;-68
2021/12/06 09:49:27;;;;;;;25.35;19.50;;;;;;;19.84;63.50;101101.00;5055028;28;20484;-67
2021/12/06 09:51:59;;;;;;;28.85;22.00;;;;;;;19.66;63.76;101088.81;5054148;28;20547;-67
2021/12/06 09:54:29;;;;;;;27.35;23.15;;;;;;;19.46;64.44;101089.13;5054374;28;20048;-67
2021/12/06 09:56:59;;;;;;;11.27;4.55;;;;;;;19.41;64.65;101090.09;5057141;28;20063;-67
2021/12/06 09:59:28;;;;;;;30.20;25.08;;;;;;;19.36;66.66;101086.59;5048567;28;20108;-67
2021/12/06 10:02:02;;;;;;;39.47;34.85;;;;;;;19.26;68.14;101087.63;5034712;28;20064;-68
2021/12/06 10:04:33;;;;;;;13.23;5.88;;;;;;;18.98;70.55;101084.44;5032703;28;20072;-68
2021/12/06 10:07:01;;;;;;;9.68;2.22;;;;;;;18.65;72.02;101078.63;5046320;28;20041;-68
2021/12/06 10:09:30;;;;;;;9.07;1.50;;;;;;;18.48;73.08;101077.03;5054250;28;20102;-69
2021/12/06 10:12:01;;;;;;;7.90;1.55;;;;;;;18.49;74.17;101065.44;5054357;28;20037;-69
2021/12/06 10:14:29;;;;;;;8.23;2.13;;;;;;;18.85;75.70;101062.31;5088108;28;20407;-69
2021/12/06 10:16:57;;;;;;;12.35;1.88;;;;;;;18.85;75.28;101061.44;5093498;28;20074;-68
2021/12/06 10:19:26;;;;;;;7.70;1.38;;;;;;;18.72;75.31;101066.06;5093905;28;20048;-68
2021/12/06 10:21:54;;;;;;;7.97;1.50;;;;;;;18.64;75.25;101060.81;5072370;28;20040;-68
2021/12/06 10:24:25;;;;;;;8.23;2.75;;;;;;;18.66;75.43;101067.03;5073745;28;20132;-68
2021/12/06 10:27:06;;;;;;;13.50;7.13;;;;;;;18.45;76.27;101053.00;5072026;28;20132;-68
2021/12/06 10:29:38;;;;;;;27.67;19.67;;;;;;;18.14;77.72;101048.03;5074459;28;20080;-69
2021/12/06 10:32:13;;;;;;;50.72;38.05;;;;;;;18.06;78.27;101036.53;5071979;28;20428;-69
2021/12/06 10:34:46;;;;;;;25.60;19.02;;;;;;;18.03;79.10;101035.69;5073306;28;20103;-69
2021/12/06 10:37:36;;;;;;;19.37;6.73;;;;;;;17.99;79.41;101034.81;5073438;28;20052;-68
2021/12/06 10:40:09;;;;;;;13.65;4.47;;;;;;;17.90;79.64;101029.59;5069125;28;20281;-68
2021/12/06 10:42:42;;;;;;;16.65;7.07;;;;;;;17.83;80.15;101042.13;5072893;28;20139;-69
2021/12/06 10:45:12;;;;;;;10.85;4.93;;;;;;;17.75;80.40;101048.41;5053309;28;20433;-68
2021/12/06 10:47:40;;;;;;;21.20;10.27;;;;;;;17.61;80.96;101056.53;5052653;28;20095;-69
2021/12/06 10:50:12;;;;;;;8.35;3.05;;;;;;;17.46;81.43;101049.50;5053488;28;20504;-69
2021/12/06 10:52:53;;;;;;;7.90;3.22;;;;;;;17.34;82.28;101027.38;5051640;28;20138;-69
2021/12/06 10:55:22;;;;;;;10.52;3.20;;;;;;;17.24;83.11;101026.56;5053164;28;20122;-69
2021/12/06 10:57:54;;;;;;;13.63;3.72;;;;;;;17.27;83.64;101022.97;5052094;28;20102;-68
2021/12/06 11:00:36;;;;;;;5.85;1.65;;;;;;;17.26;83.57;101021.22;5059526;28;20045;-68
2021/12/06 11:03:04;;;;;;;6.63;1.73;;;;;;;17.53;84.35;101016.53;5057346;28;20413;-68
2021/12/06 11:05:35;;;;;;;8.30;1.55;;;;;;;17.87;84.77;101008.22;5050988;28;20415;-68
2021/12/06 11:08:11;;;;;;;3.42;1.10;;;;;;;17.79;83.55;101010.09;5051603;28;20128;-68
2021/12/06 11:10:41;;;;;;;8.85;1.60;;;;;;;17.68;83.13;101007.53;5033210;28;20456;-66
2021/12/06 11:13:15;;;;;;;8.52;2.25;;;;;;;17.64;82.93;100997.78;5050791;28;20102;-66
2021/12/06 11:15:56;;;;;;;19.55;12.13;;;;;;;17.66;82.79;101012.00;5052147;28;20170;-66
2021/12/06 11:18:32;;;;;;;45.85;31.25;;;;;;;17.48;83.12;101010.34;5052459;28;20041;-68
2021/12/06 11:21:01;;;;;;;15.85;6.03;;;;;;;17.23;84.11;101002.56;5070990;28;20067;-68
2021/12/06 11:23:29;;;;;;;10.45;1.95;;;;;;;17.10;84.62;100996.44;5072181;28;20045;-67
2021/12/06 11:25:58;;;;;;;13.70;1.70;;;;;;;17.01;85.50;100996.50;5059703;28;20044;-67
2021/12/06 11:28:31;;;;;;;5.00;1.70;;;;;;;17.05;86.08;100991.16;5076480;28;20090;-67
2021/12/06 11:31:02;;;;;;;16.02;8.60;;;;;;;17.06;86.36;100997.38;5070963;28;20064;-68
2021/12/06 11:33:32;;;;;;;30.15;16.90;;;;;;;17.06;86.76;101000.03;5074312;28;20040;-68
2021/12/06 11:36:01;;;;;;;20.85;11.48;;;;;;;17.01;87.04;100988.47;5070810;28;20040;-67
2021/12/06 11:38:30;;;;;;;8.38;3.00;;;;;;;17.01;87.43;100991.16;5067924;28;20036;-69
2021/12/06 11:40:59;;;;;;;9.27;1.90;;;;;;;17.02;87.41;100995.59;5058910;28;20041;-67
2021/12/06 11:43:39;;;;;;;25.40;13.05;;;;;;;16.97;87.50;100981.41;5056962;28;20051;-67